sensor_id;sensor_type;location;lat;lon;timestamp;pressure;altitude;pressure_sealevel;temperature;humidity
80349;BME280;69662;52.676;13.612;2023-04-24T17:19:57;99463.22;;;21.19;41.48
80349;BME280;69662;52.676;13.612;2023-04-24T17:22:22;99456.19;;;21.15;41.46
80349;BME280;69662;52.676;13.612;2023-04-24T17:24:47;99470.03;;;21.13;41.55
80349;BME280;69662;52.676;13.612;2023-04-24T17:27:13;99465.44;;;21.24;41.56
80349;BME280;69662;52.676;13.612;2023-04-24T17:29:39;99476.91;;;21.21;40.94
80349;BME280;69662;52.676;13.612;2023-04-24T17:32:04;99485.09;;;21.19;41.04
80349;BME280;69662;52.676;13.612;2023-04-24T17:34:29;99477.75;;;21.12;41.23
80349;BME280;69662;52.676;13.612;2023-04-24T17:36:55;99480.72;;;21.09;41.01
80349;BME280;69662;52.676;13.612;2023-04-24T17:39:21;99490.19;;;21.06;40.94
80349;BME280;69662;52.676;13.612;2023-04-24T17:41:46;99495.53;;;21.04;40.98
80349;BME280;69662;52.676;13.612;2023-04-24T17:44:11;99495.22;;;21.02;41.04
80349;BME280;69662;52.676;13.612;2023-04-24T17:46:36;99489.25;;;21.00;41.19
80349;BME280;69662;52.676;13.612;2023-04-24T17:49:02;99494.94;;;21.00;41.26
80349;BME280;69662;52.676;13.612;2023-04-24T17:51:27;99504.34;;;20.96;41.13
80349;BME280;69662;52.676;13.612;2023-04-24T17:53:53;99511.28;;;20.95;41.16
80349;BME280;69662;52.676;13.612;2023-04-24T17:56:18;99514.59;;;20.94;41.31
80349;BME280;69662;52.676;13.612;2023-04-24T17:58:44;99515.38;;;20.94;41.25
80349;BME280;69662;52.676;13.612;2023-04-24T18:01:09;99527.97;;;20.93;41.22
80349;BME280;69662;52.676;13.612;2023-04-24T18:03:35;99528.75;;;20.94;41.27
80349;BME280;69662;52.676;13.612;2023-04-24T18:06:00;99529.22;;;20.92;41.17
80349;BME280;69662;52.676;13.612;2023-04-24T18:08:26;99543.38;;;20.92;41.34
80349;BME280;69662;52.676;13.612;2023-04-24T18:10:51;99537.72;;;20.92;41.24
80349;BME280;69662;52.676;13.612;2023-04-24T18:13:17;99531.75;;;20.90;41.15
80349;BME280;69662;52.676;13.612;2023-04-24T18:15:42;99537.41;;;20.90;41.21
80349;BME280;69662;52.676;13.612;2023-04-24T18:18:11;99545.91;;;20.90;41.14
80349;BME280;69662;52.676;13.612;2023-04-24T18:20:37;99549.53;;;20.91;41.19
80349;BME280;69662;52.676;13.612;2023-04-24T18:23:03;99555.19;;;20.91;41.31
80349;BME280;69662;52.676;13.612;2023-04-24T18:25:29;99561.31;;;20.89;41.25
80349;BME280;69662;52.676;13.612;2023-04-24T18:27:54;99565.41;;;20.88;41.32
80349;BME280;69662;52.676;13.612;2023-04-24T18:30:20;99581.16;;;20.89;41.18
80349;BME280;69662;52.676;13.612;2023-04-24T18:32:49;99582.41;;;20.88;41.24
80349;BME280;69662;52.676;13.612;2023-04-24T18:35:16;99590.91;;;20.88;41.10
80349;BME280;69662;52.676;13.612;2023-04-24T18:37:43;99598.59;;;20.88;41.13
80349;BME280;69662;52.676;13.612;2023-04-24T18:40:10;99601.44;;;20.88;40.97
80349;BME280;69662;52.676;13.612;2023-04-24T18:42:35;99601.13;;;20.86;41.02
80349;BME280;69662;52.676;13.612;2023-04-24T18:45:00;99624.25;;;20.84;41.05
80349;BME280;69662;52.676;13.612;2023-04-24T18:47:27;99615.28;;;20.86;40.98
80349;BME280;69662;52.676;13.612;2023-04-24T18:49:52;99621.44;;;20.84;40.83
80349;BME280;69662;52.676;13.612;2023-04-24T18:52:18;99624.69;;;20.83;40.57
80349;BME280;69662;52.676;13.612;2023-04-24T18:54:43;99636.03;;;20.83;40.36
80349;BME280;69662;52.676;13.612;2023-04-24T18:57:09;99638.06;;;20.82;40.27
80349;BME280;69662;52.676;13.612;2023-04-24T18:59:34;99642.94;;;20.82;40.45
80349;BME280;69662;52.676;13.612;2023-04-24T19:01:59;99640.13;;;20.82;40.31
80349;BME280;69662;52.676;13.612;2023-04-24T19:04:25;99652.69;;;20.81;40.30
80349;BME280;69662;52.676;13.612;2023-04-24T19:06:50;99656.31;;;20.81;40.51
80349;BME280;69662;52.676;13.612;2023-04-24T19:09:15;99664.81;;;20.81;40.53
80349;BME280;69662;52.676;13.612;2023-04-24T19:11:40;99666.84;;;20.81;40.66
80349;BME280;69662;52.676;13.612;2023-04-24T19:14:06;99680.22;;;20.80;40.47
80349;BME280;69662;52.676;13.612;2023-04-24T19:16:31;99679.91;;;20.78;40.36
80349;BME280;69662;52.676;13.612;2023-04-24T19:18:56;99672.19;;;20.79;40.24
80349;BME280;69662;52.676;13.612;2023-04-24T19:21:22;99675.50;;;20.77;40.34
80349;BME280;69662;52.676;13.612;2023-04-24T19:23:48;99673.00;;;20.79;40.19
80349;BME280;69662;52.676;13.612;2023-04-24T19:26:15;99677.06;;;20.78;40.25
80349;BME280;69662;52.676;13.612;2023-04-24T19:28:40;99684.31;;;20.79;40.29
80349;BME280;69662;52.676;13.612;2023-04-24T19:31:06;99685.56;;;20.78;40.23
80349;BME280;69662;52.676;13.612;2023-04-24T19:33:31;99679.91;;;20.78;40.28
80349;BME280;69662;52.676;13.612;2023-04-24T19:35:56;99681.94;;;20.78;40.15
80349;BME280;69662;52.676;13.612;2023-04-24T19:38:22;99676.28;;;20.78;39.96
80349;BME280;69662;52.676;13.612;2023-04-24T19:40:47;99677.56;;;20.77;40.19
80349;BME280;69662;52.676;13.612;2023-04-24T19:43:12;99686.03;;;20.77;40.26
80349;BME280;69662;52.676;13.612;2023-04-24T19:45:38;99680.84;;;20.75;40.11
80349;BME280;69662;52.676;13.612;2023-04-24T19:48:03;99676.44;;;20.74;40.14
80349;BME280;69662;52.676;13.612;2023-04-24T19:50:29;99683.69;;;20.75;40.18
80349;BME280;69662;52.676;13.612;2023-04-24T19:52:55;99675.19;;;20.75;40.17
80349;BME280;69662;52.676;13.612;2023-04-24T19:55:21;99690.91;;;20.76;40.63
80349;BME280;69662;52.676;13.612;2023-04-24T19:57:46;99693.28;;;20.78;40.17
80349;BME280;69662;52.676;13.612;2023-04-24T20:00:11;99690.91;;;20.76;39.78
80349;BME280;69662;52.676;13.612;2023-04-24T20:02:37;99692.50;;;20.77;39.71
80349;BME280;69662;52.676;13.612;2023-04-24T20:05:03;99690.13;;;20.76;39.83
80349;BME280;69662;52.676;13.612;2023-04-24T20:07:29;99699.88;;;20.75;39.61
80349;BME280;69662;52.676;13.612;2023-04-24T20:09:54;99700.66;;;20.75;39.93
80349;BME280;69662;52.676;13.612;2023-04-24T20:12:19;99697.84;;;20.75;39.85
80349;BME280;69662;52.676;13.612;2023-04-24T20:14:48;99695.00;;;20.75;40.04
80349;BME280;69662;52.676;13.612;2023-04-24T20:17:14;99687.78;;;20.74;39.89
80349;BME280;69662;52.676;13.612;2023-04-24T20:19:41;99699.09;;;20.74;39.88
80349;BME280;69662;52.676;13.612;2023-04-24T20:22:06;99695.47;;;20.74;39.90
80349;BME280;69662;52.676;13.612;2023-04-24T20:24:32;99690.28;;;20.72;40.13
80349;BME280;69662;52.676;13.612;2023-04-24T20:26:57;99698.78;;;20.72;40.40
80349;BME280;69662;52.676;13.612;2023-04-24T20:29:23;99701.63;;;20.72;40.00
80349;BME280;69662;52.676;13.612;2023-04-24T20:31:48;99698.78;;;20.72;39.88
80349;BME280;69662;52.676;13.612;2023-04-24T20:34:13;99699.25;;;20.71;40.21
80349;BME280;69662;52.676;13.612;2023-04-24T20:36:39;99699.25;;;20.71;40.49
80349;BME280;69662;52.676;13.612;2023-04-24T20:39:05;99701.31;;;20.70;40.52
80349;BME280;69662;52.676;13.612;2023-04-24T20:41:32;99709.78;;;20.70;40.34
80349;BME280;69662;52.676;13.612;2023-04-24T20:43:58;99714.63;;;20.70;40.35
80349;BME280;69662;52.676;13.612;2023-04-24T20:46:23;99709.78;;;20.70;40.43
80349;BME280;69662;52.676;13.612;2023-04-24T20:48:48;99707.41;;;20.69;40.58
80349;BME280;69662;52.676;13.612;2023-04-24T20:51:14;99715.44;;;20.70;40.53
80349;BME280;69662;52.676;13.612;2023-04-24T20:53:39;99711.81;;;20.70;40.47
80349;BME280;69662;52.676;13.612;2023-04-24T20:56:05;99697.66;;;20.70;40.40
80349;BME280;69662;52.676;13.612;2023-04-24T20:58:31;99702.53;;;20.69;40.47
80349;BME280;69662;52.676;13.612;2023-04-24T21:00:56;99707.88;;;20.67;40.64
80349;BME280;69662;52.676;13.612;2023-04-24T21:03:21;99711.50;;;20.67;40.60
80349;BME280;69662;52.676;13.612;2023-04-24T21:05:46;99704.25;;;20.66;40.44
80349;BME280;69662;52.676;13.612;2023-04-24T21:08:12;99705.84;;;20.67;40.60
80349;BME280;69662;52.676;13.612;2023-04-24T21:10:37;99694.97;;;20.66;40.63
80349;BME280;69662;52.676;13.612;2023-04-24T21:13:03;99693.41;;;20.65;40.54
80349;BME280;69662;52.676;13.612;2023-04-24T21:15:29;99692.16;;;20.66;40.64
80349;BME280;69662;52.676;13.612;2023-04-24T21:17:55;99692.16;;;20.66;40.61
80349;BME280;69662;52.676;13.612;2023-04-24T21:20:20;99702.69;;;20.65;40.47
80349;BME280;69662;52.676;13.612;2023-04-24T21:22:45;99709.91;;;20.66;40.58
80349;BME280;69662;52.676;13.612;2023-04-24T21:25:11;99704.25;;;20.66;40.61
80349;BME280;69662;52.676;13.612;2023-04-24T21:27:36;99691.38;;;20.65;40.60
80349;BME280;69662;52.676;13.612;2023-04-24T21:30:05;99701.13;;;20.64;40.54
80349;BME280;69662;52.676;13.612;2023-04-24T21:32:30;99689.00;;;20.64;40.66
80349;BME280;69662;52.676;13.612;2023-04-24T21:34:56;99694.66;;;20.64;40.76
80349;BME280;69662;52.676;13.612;2023-04-24T21:37:23;99700.31;;;20.64;40.52
80349;BME280;69662;52.676;13.612;2023-04-24T21:39:49;99698.75;;;20.63;40.55
80349;BME280;69662;52.676;13.612;2023-04-24T21:42:14;99701.28;;;20.61;40.66
80349;BME280;69662;52.676;13.612;2023-04-24T21:44:39;99700.31;;;20.64;40.48
80349;BME280;69662;52.676;13.612;2023-04-24T21:47:05;99693.09;;;20.63;40.52
80349;BME280;69662;52.676;13.612;2023-04-24T21:49:30;99696.72;;;20.63;40.63
80349;BME280;69662;52.676;13.612;2023-04-24T21:51:55;99688.22;;;20.63;40.57
80349;BME280;69662;52.676;13.612;2023-04-24T21:54:21;99686.66;;;20.62;40.49
80349;BME280;69662;52.676;13.612;2023-04-24T21:56:46;99689.00;;;20.64;40.55
80349;BME280;69662;52.676;13.612;2023-04-24T21:59:11;99697.50;;;20.64;40.57
80349;BME280;69662;52.676;13.612;2023-04-24T22:01:37;99699.06;;;20.65;40.52
80349;BME280;69662;52.676;13.612;2023-04-24T22:04:02;99697.50;;;20.64;40.81
80349;BME280;69662;52.676;13.612;2023-04-24T22:06:29;99693.88;;;20.63;40.53
80349;BME280;69662;52.676;13.612;2023-04-24T22:08:54;99696.25;;;20.65;40.60
80349;BME280;69662;52.676;13.612;2023-04-24T22:11:20;99690.56;;;20.65;40.69
80349;BME280;69662;52.676;13.612;2023-04-24T22:13:45;99682.09;;;20.65;40.55
80349;BME280;69662;52.676;13.612;2023-04-24T22:16:11;99684.91;;;20.65;40.67
80349;BME280;69662;52.676;13.612;2023-04-24T22:18:36;99689.31;;;20.66;40.63
80349;BME280;69662;52.676;13.612;2023-04-24T22:21:02;99686.50;;;20.66;40.74
80349;BME280;69662;52.676;13.612;2023-04-24T22:23:28;99704.25;;;20.66;40.62
80349;BME280;69662;52.676;13.612;2023-04-24T22:25:53;99692.16;;;20.66;40.58
80349;BME280;69662;52.676;13.612;2023-04-24T22:28:18;99699.38;;;20.67;40.75
80349;BME280;69662;52.676;13.612;2023-04-24T22:30:44;99693.72;;;20.67;40.85
80349;BME280;69662;52.676;13.612;2023-04-24T22:33:09;99693.72;;;20.67;40.80
80349;BME280;69662;52.676;13.612;2023-04-24T22:35:34;99686.50;;;20.66;40.76
80349;BME280;69662;52.676;13.612;2023-04-24T22:38:01;99688.06;;;20.67;40.76
80349;BME280;69662;52.676;13.612;2023-04-24T22:40:28;99686.03;;;20.67;40.72
80349;BME280;69662;52.676;13.612;2023-04-24T22:42:53;99684.44;;;20.66;40.54
80349;BME280;69662;52.676;13.612;2023-04-24T22:45:18;99686.50;;;20.66;40.96
80349;BME280;69662;52.676;13.612;2023-04-24T22:47:47;99682.41;;;20.67;40.88
80349;BME280;69662;52.676;13.612;2023-04-24T22:50:13;99675.16;;;20.66;40.83
80349;BME280;69662;52.676;13.612;2023-04-24T22:52:38;99681.63;;;20.66;40.87
80349;BME280;69662;52.676;13.612;2023-04-24T22:55:05;99679.56;;;20.67;40.86
80349;BME280;69662;52.676;13.612;2023-04-24T22:57:31;99682.41;;;20.67;40.86
80349;BME280;69662;52.676;13.612;2023-04-24T22:59:56;99689.63;;;20.68;40.56
80349;BME280;69662;52.676;13.612;2023-04-24T23:02:22;99675.94;;;20.66;40.85
80349;BME280;69662;52.676;13.612;2023-04-24T23:04:47;99693.72;;;20.67;40.85
80349;BME280;69662;52.676;13.612;2023-04-24T23:07:13;99682.41;;;20.67;40.67
80349;BME280;69662;52.676;13.612;2023-04-24T23:09:38;99684.44;;;20.66;40.85
80349;BME280;69662;52.676;13.612;2023-04-24T23:12:04;99682.41;;;20.67;40.77
80349;BME280;69662;52.676;13.612;2023-04-24T23:14:29;99675.16;;;20.66;40.96
80349;BME280;69662;52.676;13.612;2023-04-24T23:16:56;99679.56;;;20.67;40.70
80349;BME280;69662;52.676;13.612;2023-04-24T23:19:21;99675.94;;;20.66;40.63
80349;BME280;69662;52.676;13.612;2023-04-24T23:21:46;99683.66;;;20.66;40.86
80349;BME280;69662;52.676;13.612;2023-04-24T23:24:11;99678.00;;;20.66;40.71
80349;BME280;69662;52.676;13.612;2023-04-24T23:26:38;99674.38;;;20.65;40.64
80349;BME280;69662;52.676;13.612;2023-04-24T23:29:03;99675.16;;;20.66;40.90
80349;BME280;69662;52.676;13.612;2023-04-24T23:31:28;99672.34;;;20.66;40.73
80349;BME280;69662;52.676;13.612;2023-04-24T23:33:54;99676.75;;;20.67;40.75
80349;BME280;69662;52.676;13.612;2023-04-24T23:36:19;99680.81;;;20.66;40.85
80349;BME280;69662;52.676;13.612;2023-04-24T23:38:44;99666.69;;;20.66;41.04
80349;BME280;69662;52.676;13.612;2023-04-24T23:41:10;99670.75;;;20.65;40.72
80349;BME280;69662;52.676;13.612;2023-04-24T23:43:35;99665.88;;;20.65;40.83
80349;BME280;69662;52.676;13.612;2023-04-24T23:46:01;99665.09;;;20.65;40.88
80349;BME280;69662;52.676;13.612;2023-04-24T23:48:27;99675.16;;;20.66;40.70
80349;BME280;69662;52.676;13.612;2023-04-24T23:50:52;99665.09;;;20.65;40.73
80349;BME280;69662;52.676;13.612;2023-04-24T23:53:17;99671.06;;;20.67;40.77
80349;BME280;69662;52.676;13.612;2023-04-24T23:55:43;99676.44;;;20.65;40.58
80349;BME280;69662;52.676;13.612;2023-04-24T23:58:08;99671.56;;;20.65;40.77
